createdAt,value
2023-05-27T00:02:07.013Z,5.38
2023-05-27T00:04:34.297Z,5.30
2023-05-27T00:07:01.522Z,5.28
2023-05-27T00:09:28.692Z,5.22
2023-05-27T00:11:55.899Z,5.05
2023-05-27T00:14:23.367Z,5.00
2023-05-27T00:16:50.741Z,4.85
2023-05-27T00:19:18.450Z,5.20
2023-05-27T00:21:45.710Z,4.80
2023-05-27T00:24:12.917Z,5.00
2023-05-27T00:26:40.281Z,4.70
2023-05-27T00:29:07.635Z,4.60
2023-05-27T00:31:34.897Z,4.82
2023-05-27T00:34:02.194Z,4.35
2023-05-27T00:36:29.481Z,4.80
2023-05-27T00:38:56.683Z,4.95
2023-05-27T00:41:24.247Z,4.57
2023-05-27T00:43:51.517Z,5.43
2023-05-27T00:46:19.757Z,4.60
2023-05-27T00:48:47.715Z,4.93
2023-05-27T00:51:14.928Z,5.30
2023-05-27T00:53:43.159Z,4.57
2023-05-27T00:56:11.137Z,4.82
2023-05-27T00:58:38.896Z,5.03
2023-05-27T01:01:06.721Z,4.78
2023-05-27T01:03:34.299Z,4.63
2023-05-27T01:06:23.203Z,4.57
2023-05-27T01:08:59.885Z,4.95
2023-05-27T01:11:30.017Z,5.07
2023-05-27T01:14:10.998Z,3.90
2023-05-27T01:16:44.976Z,4.70
2023-05-27T01:19:24.291Z,4.95
2023-05-27T01:21:51.997Z,4.25
2023-05-27T01:24:19.906Z,4.50
2023-05-27T01:26:47.086Z,4.40
2023-05-27T01:29:14.277Z,4.90
2023-05-27T01:31:46.865Z,4.03
2023-05-27T01:34:16.795Z,4.43
2023-05-27T01:36:52.779Z,4.22
2023-05-27T01:39:21.224Z,4.70
2023-05-27T01:41:48.404Z,4.20
2023-05-27T01:44:18.275Z,4.10
2023-05-27T01:46:46.077Z,4.20
2023-05-27T01:49:13.248Z,4.43
2023-05-27T01:51:40.448Z,4.63
2023-05-27T01:54:07.718Z,4.32
2023-05-27T01:56:34.883Z,4.30
2023-05-27T01:59:02.074Z,4.10
2023-05-27T02:01:29.522Z,4.30
2023-05-27T02:03:56.938Z,4.72
2023-05-27T02:06:24.134Z,4.38
2023-05-27T02:08:51.300Z,4.50
2023-05-27T02:11:18.501Z,4.45
2023-05-27T02:13:45.670Z,4.20
2023-05-27T02:16:13.631Z,4.00
2023-05-27T02:18:41.853Z,4.35
2023-05-27T02:21:09.092Z,4.50
2023-05-27T02:23:37.402Z,4.15
2023-05-27T02:26:04.700Z,4.30
2023-05-27T02:28:31.919Z,3.80
2023-05-27T02:30:59.708Z,4.53
2023-05-27T02:33:27.050Z,4.90
2023-05-27T02:35:54.256Z,4.22
2023-05-27T02:38:21.445Z,4.50
2023-05-27T02:40:48.653Z,3.92
2023-05-27T02:43:15.895Z,4.00
2023-05-27T02:45:43.159Z,4.00
2023-05-27T02:48:10.549Z,4.35
2023-05-27T02:50:37.820Z,4.68
2023-05-27T02:53:05.303Z,4.03
2023-05-27T02:55:32.571Z,4.18
2023-05-27T02:57:59.745Z,4.82
2023-05-27T03:00:28.236Z,4.35
2023-05-27T03:02:55.506Z,4.53
2023-05-27T03:05:22.809Z,3.85
2023-05-27T03:07:49.989Z,4.78
2023-05-27T03:10:17.195Z,4.43
2023-05-27T03:12:44.514Z,4.30
2023-05-27T03:15:11.757Z,4.25
2023-05-27T03:17:39.343Z,4.53
2023-05-27T03:20:08.617Z,4.05
2023-05-27T03:22:37.372Z,4.18
2023-05-27T03:25:05.516Z,4.18
2023-05-27T03:27:33.184Z,4.20
2023-05-27T03:30:00.358Z,4.50
2023-05-27T03:32:27.582Z,4.10
2023-05-27T03:34:54.787Z,4.03
2023-05-27T03:37:21.997Z,4.15
2023-05-27T03:39:49.180Z,4.35
2023-05-27T03:42:16.439Z,4.15
2023-05-27T03:44:43.626Z,4.35
2023-05-27T03:47:10.832Z,3.80
2023-05-27T03:49:38.027Z,3.92
2023-05-27T03:52:05.363Z,4.15
2023-05-27T03:54:32.569Z,3.80
2023-05-27T03:56:59.749Z,4.38
2023-05-27T03:59:26.905Z,4.00
2023-05-27T04:01:54.144Z,4.10
2023-05-27T04:04:21.510Z,3.67
2023-05-27T04:06:48.896Z,4.10
2023-05-27T04:09:16.092Z,4.07
2023-05-27T04:11:43.359Z,4.53
2023-05-27T04:14:10.888Z,4.35
2023-05-27T04:16:38.568Z,4.38
2023-05-27T04:19:06.050Z,4.15
2023-05-27T04:21:33.288Z,4.57
2023-05-27T04:24:00.472Z,4.63
2023-05-27T04:26:27.795Z,4.30
2023-05-27T04:28:54.971Z,4.30
2023-05-27T04:31:22.299Z,4.75
2023-05-27T04:33:49.570Z,3.90
2023-05-27T04:36:18.088Z,4.90
2023-05-27T04:38:46.253Z,4.40
2023-05-27T04:41:13.446Z,4.30
2023-05-27T04:43:43.291Z,4.22
2023-05-27T04:46:10.507Z,4.47
2023-05-27T04:48:37.688Z,4.38
2023-05-27T04:51:05.736Z,4.13
2023-05-27T04:53:33.505Z,4.10
2023-05-27T04:56:01.265Z,4.15
2023-05-27T04:58:29.304Z,4.47
2023-05-27T05:00:58.177Z,5.03
2023-05-27T05:03:38.007Z,4.15
2023-05-27T05:06:05.723Z,4.65
2023-05-27T05:08:33.048Z,4.35
2023-05-27T05:11:00.709Z,4.10
2023-05-27T05:13:30.178Z,4.60
2023-05-27T05:15:57.651Z,3.78
2023-05-27T05:18:24.835Z,3.85
2023-05-27T05:20:52.329Z,3.95
2023-05-27T05:23:19.795Z,3.78
2023-05-27T05:25:48.129Z,3.97
2023-05-27T05:28:15.318Z,4.40
2023-05-27T05:30:42.563Z,4.22
2023-05-27T05:33:10.020Z,3.85
2023-05-27T05:35:37.334Z,4.07
2023-05-27T05:38:04.520Z,3.85
2023-05-27T05:40:31.683Z,3.90
2023-05-27T05:42:58.855Z,4.30
2023-05-27T05:45:26.626Z,4.43
2023-05-27T05:47:53.813Z,4.28
2023-05-27T05:50:21.052Z,4.93
2023-05-27T05:52:48.223Z,5.43
2023-05-27T05:55:15.567Z,5.30
2023-05-27T05:57:42.786Z,4.78
2023-05-27T06:00:10.402Z,4.82
2023-05-27T06:02:37.659Z,5.50
2023-05-27T06:05:04.992Z,5.20
2023-05-27T06:07:32.200Z,4.97
2023-05-27T06:09:59.382Z,4.72
2023-05-27T06:12:27.679Z,5.13
2023-05-27T06:14:55.010Z,4.20
2023-05-27T06:17:22.381Z,4.85
2023-05-27T06:19:49.595Z,5.25
2023-05-27T06:22:17.090Z,8.88
2023-05-27T06:24:44.311Z,12.15
2023-05-27T06:27:11.560Z,11.80
2023-05-27T06:29:38.896Z,11.93
2023-05-27T06:32:06.497Z,10.07
2023-05-27T06:34:33.718Z,9.73
2023-05-27T06:37:00.932Z,8.35
2023-05-27T06:39:28.106Z,9.00
2023-05-27T06:41:55.298Z,9.15
2023-05-27T06:44:22.470Z,8.43
2023-05-27T06:46:51.586Z,9.50
2023-05-27T06:49:19.606Z,10.95
2023-05-27T06:51:46.830Z,10.48
2023-05-27T06:54:16.562Z,11.23
2023-05-27T06:56:43.722Z,10.88
2023-05-27T06:59:11.034Z,9.95
2023-05-27T07:01:38.261Z,11.15
2023-05-27T07:04:05.584Z,9.98
2023-05-27T07:06:32.925Z,9.45
2023-05-27T07:09:00.356Z,9.48
2023-05-27T07:11:27.724Z,9.50
2023-05-27T07:13:54.876Z,9.52
2023-05-27T07:16:22.215Z,9.55
2023-05-27T07:18:49.485Z,9.57
2023-05-27T07:21:16.710Z,9.82
2023-05-27T07:23:43.889Z,8.90
2023-05-27T07:26:11.250Z,8.77
2023-05-27T07:28:39.503Z,8.90
2023-05-27T07:31:06.733Z,9.27
2023-05-27T07:33:36.605Z,8.60
2023-05-27T07:36:03.857Z,9.20
2023-05-27T07:38:31.008Z,7.95
2023-05-27T07:40:58.164Z,8.98
2023-05-27T07:43:25.822Z,8.90
2023-05-27T07:45:52.981Z,8.30
2023-05-27T07:48:20.185Z,8.05
2023-05-27T07:50:47.417Z,10.00
2023-05-27T07:53:14.668Z,8.13
2023-05-27T07:55:41.900Z,9.07
2023-05-27T07:58:09.094Z,9.23
2023-05-27T08:00:36.279Z,8.85
2023-05-27T08:03:03.551Z,9.15
2023-05-27T08:05:31.294Z,8.70
2023-05-27T08:07:58.511Z,9.30
2023-05-27T08:10:25.933Z,8.23
2023-05-27T08:12:53.538Z,9.18
2023-05-27T08:15:20.703Z,9.07
2023-05-27T08:17:48.002Z,8.63
2023-05-27T08:20:15.377Z,8.27
2023-05-27T08:22:43.651Z,9.07
2023-05-27T08:25:11.092Z,9.45
2023-05-27T08:27:48.194Z,8.93
2023-05-27T08:30:15.875Z,9.27
2023-05-27T08:32:43.169Z,8.45
2023-05-27T08:35:11.299Z,9.40
2023-05-27T08:37:38.986Z,9.45
2023-05-27T08:40:08.763Z,8.00
2023-05-27T08:42:36.153Z,8.02
2023-05-27T08:45:03.332Z,7.38
2023-05-27T08:47:31.773Z,8.65
2023-05-27T08:50:02.137Z,6.88
2023-05-27T08:52:30.630Z,8.73
2023-05-27T08:54:59.003Z,7.68
2023-05-27T08:57:36.638Z,7.72
2023-05-27T09:00:12.416Z,7.88
2023-05-27T09:02:40.163Z,6.68
2023-05-27T09:05:09.060Z,6.32
2023-05-27T09:07:36.969Z,6.20
2023-05-27T09:10:04.270Z,7.28
2023-05-27T09:12:31.456Z,7.05
2023-05-27T09:14:58.701Z,5.88
2023-05-27T09:17:26.096Z,6.03
2023-05-27T09:19:53.749Z,6.40
2023-05-27T09:22:24.566Z,5.90
2023-05-27T09:24:55.018Z,6.18
2023-05-27T09:27:29.154Z,6.22
2023-05-27T09:29:56.497Z,6.57
2023-05-27T09:32:28.223Z,5.78
2023-05-27T09:35:05.636Z,5.63
2023-05-27T09:37:34.058Z,5.40
2023-05-27T09:40:01.509Z,5.53
2023-05-27T09:42:28.806Z,5.22
2023-05-27T09:44:56.259Z,5.47
2023-05-27T09:47:24.187Z,5.75
2023-05-27T09:49:54.973Z,5.95
2023-05-27T09:52:22.924Z,5.10
2023-05-27T09:54:51.967Z,5.38
2023-05-27T09:57:19.980Z,5.57
2023-05-27T09:59:47.782Z,6.07
2023-05-27T10:02:19.065Z,5.80
2023-05-27T10:04:46.512Z,5.70
2023-05-27T10:07:18.369Z,6.38
2023-05-27T10:09:50.193Z,7.17
2023-05-27T10:12:17.509Z,7.88
2023-05-27T10:14:47.381Z,8.10
2023-05-27T10:17:14.669Z,8.38
2023-05-27T10:19:56.039Z,8.82
2023-05-27T10:22:24.006Z,9.35
2023-05-27T10:24:54.115Z,8.15
2023-05-27T10:27:22.511Z,8.68
2023-05-27T10:29:58.783Z,8.35
2023-05-27T10:32:26.332Z,7.85
2023-05-27T10:34:53.963Z,7.03
2023-05-27T10:37:22.565Z,6.95
2023-05-27T10:39:56.584Z,7.07
2023-05-27T10:42:26.592Z,6.38
2023-05-27T10:45:12.388Z,6.72
2023-05-27T10:47:39.776Z,6.43
2023-05-27T10:50:14.346Z,6.28
2023-05-27T10:52:42.425Z,5.75
2023-05-27T10:55:09.992Z,6.68
2023-05-27T10:57:37.403Z,6.70
2023-05-27T11:00:10.197Z,6.53
2023-05-27T11:02:40.851Z,7.90
2023-05-27T11:05:16.568Z,7.38
2023-05-27T11:07:44.084Z,9.18
2023-05-27T11:10:11.554Z,9.70
2023-05-27T11:12:38.780Z,9.68
2023-05-27T11:15:06.317Z,10.85
2023-05-27T11:17:35.131Z,11.40
2023-05-27T11:20:05.416Z,12.70
2023-05-27T11:22:35.454Z,13.80
2023-05-27T11:25:03.525Z,10.18
2023-05-27T11:27:34.735Z,9.57
2023-05-27T11:30:04.549Z,8.82
2023-05-27T11:32:34.812Z,8.70
2023-05-27T11:35:01.942Z,8.13
2023-05-27T11:37:36.400Z,7.47
2023-05-27T11:40:03.705Z,7.28
2023-05-27T11:42:31.472Z,7.05
2023-05-27T11:45:00.530Z,7.20
2023-05-27T11:47:27.805Z,6.88
2023-05-27T11:49:55.127Z,6.88
2023-05-27T11:52:26.955Z,6.05
2023-05-27T11:54:58.332Z,5.72
2023-05-27T11:57:25.903Z,6.43
2023-05-27T11:59:53.363Z,6.22
2023-05-27T12:02:22.351Z,6.00
2023-05-27T12:04:50.166Z,5.93
2023-05-27T12:07:20.821Z,6.10
2023-05-27T12:09:50.328Z,5.78
2023-05-27T12:12:17.919Z,6.93
2023-05-27T12:14:45.085Z,9.95
2023-05-27T12:17:12.264Z,10.50
2023-05-27T12:19:39.439Z,11.73
2023-05-27T12:22:06.620Z,12.30
2023-05-27T12:24:35.459Z,13.20
2023-05-27T12:27:03.261Z,31.40
2023-05-27T12:29:31.407Z,40.20
2023-05-27T12:31:58.841Z,46.22
2023-05-27T12:34:26.674Z,53.97
2023-05-27T12:36:53.920Z,53.40
2023-05-27T12:39:21.831Z,49.67
2023-05-27T12:41:49.133Z,43.40
2023-05-27T12:44:17.036Z,34.17
2023-05-27T12:46:46.687Z,29.17
2023-05-27T12:49:13.945Z,21.55
2023-05-27T12:51:41.158Z,19.73
2023-05-27T12:54:08.822Z,15.20
2023-05-27T12:56:36.311Z,13.32
2023-05-27T12:59:03.551Z,13.13
2023-05-27T13:01:31.768Z,11.25
2023-05-27T13:03:59.091Z,10.13
2023-05-27T13:06:26.318Z,12.02
2023-05-27T13:08:53.938Z,12.45
2023-05-27T13:11:21.610Z,12.63
2023-05-27T13:13:48.818Z,13.65
2023-05-27T13:16:16.328Z,12.88
2023-05-27T13:18:43.485Z,10.35
2023-05-27T13:21:10.671Z,9.65
2023-05-27T13:23:37.873Z,9.02
2023-05-27T13:26:06.049Z,9.02
2023-05-27T13:28:33.467Z,8.57
2023-05-27T13:31:00.741Z,10.23
2023-05-27T13:33:27.886Z,14.70
2023-05-27T13:35:55.086Z,20.95
2023-05-27T13:38:22.305Z,21.73
2023-05-27T13:40:49.519Z,22.48
2023-05-27T13:43:16.678Z,22.63
2023-05-27T13:45:43.912Z,18.95
2023-05-27T13:48:11.293Z,16.90
2023-05-27T13:50:38.598Z,15.40
2023-05-27T13:53:05.892Z,14.65
2023-05-27T13:55:33.145Z,12.88
2023-05-27T13:58:00.583Z,11.98
2023-05-27T14:00:27.778Z,10.02
2023-05-27T14:02:55.421Z,10.00
2023-05-27T14:05:22.700Z,9.82
2023-05-27T14:07:49.927Z,8.98
2023-05-27T14:10:17.188Z,8.35
2023-05-27T14:12:44.399Z,8.68
2023-05-27T14:15:12.173Z,8.43
2023-05-27T14:17:39.384Z,8.25
2023-05-27T14:20:11.618Z,7.45
2023-05-27T14:22:39.382Z,7.50
2023-05-27T14:25:07.254Z,7.40
2023-05-27T14:27:34.513Z,7.53
2023-05-27T14:30:01.694Z,7.55
2023-05-27T14:32:28.958Z,7.25
2023-05-27T14:34:57.374Z,7.30
2023-05-27T14:37:24.675Z,6.72
2023-05-27T14:39:55.048Z,6.80
2023-05-27T14:42:22.247Z,6.70
2023-05-27T14:44:49.436Z,6.18
2023-05-27T14:47:16.664Z,6.25
2023-05-27T14:49:43.846Z,6.28
2023-05-27T14:52:11.070Z,5.93
2023-05-27T14:54:38.272Z,6.35
2023-05-27T14:57:05.606Z,6.55
2023-05-27T14:59:32.763Z,5.80
2023-05-27T15:01:59.918Z,6.68
2023-05-27T15:04:27.107Z,5.80
2023-05-27T15:06:54.324Z,5.75
2023-05-27T15:09:21.725Z,6.18
2023-05-27T15:11:48.942Z,5.85
2023-05-27T15:14:16.167Z,6.10
2023-05-27T15:16:43.401Z,5.63
2023-05-27T15:19:10.759Z,5.97
2023-05-27T15:21:37.932Z,5.88
2023-05-27T15:24:05.129Z,4.88
2023-05-27T15:26:32.550Z,5.43
2023-05-27T15:28:59.789Z,5.57
2023-05-27T15:31:27.026Z,5.25
2023-05-27T15:33:55.358Z,5.35
2023-05-27T15:36:22.542Z,5.43
2023-05-27T15:38:49.699Z,5.70
2023-05-27T15:41:16.924Z,6.05
2023-05-27T15:43:45.190Z,5.72
2023-05-27T15:46:12.740Z,6.35
2023-05-27T15:48:40.488Z,7.20
2023-05-27T15:51:08.110Z,6.47
2023-05-27T15:53:35.318Z,5.80
2023-05-27T15:56:02.486Z,7.10
2023-05-27T15:58:29.643Z,6.50
2023-05-27T16:00:56.848Z,6.05
2023-05-27T16:03:26.302Z,6.43
2023-05-27T16:05:53.682Z,6.07
2023-05-27T16:08:20.976Z,6.60
2023-05-27T16:10:52.776Z,6.35
2023-05-27T16:13:20.831Z,5.90
2023-05-27T16:15:48.575Z,6.20
2023-05-27T16:18:17.645Z,5.78
2023-05-27T16:20:44.857Z,6.70
2023-05-27T16:23:12.085Z,5.40
2023-05-27T16:25:39.410Z,5.43
2023-05-27T16:28:06.617Z,6.82
2023-05-27T16:30:33.812Z,5.85
2023-05-27T16:33:01.074Z,6.30
2023-05-27T16:35:28.259Z,5.65
2023-05-27T16:37:56.284Z,5.50
2023-05-27T16:40:23.633Z,6.13
2023-05-27T16:42:50.849Z,5.72
2023-05-27T16:45:18.060Z,6.40
2023-05-27T16:47:45.330Z,5.80
2023-05-27T16:50:12.679Z,5.82
2023-05-27T16:52:40.017Z,5.57
2023-05-27T16:55:07.825Z,6.43
2023-05-27T16:57:35.614Z,6.72
2023-05-27T17:00:06.065Z,5.97
2023-05-27T17:02:33.488Z,5.85
2023-05-27T17:05:00.771Z,6.75
2023-05-27T17:07:27.996Z,6.70
2023-05-27T17:09:55.235Z,6.65
2023-05-27T17:12:22.511Z,6.68
2023-05-27T17:14:49.688Z,5.93
2023-05-27T17:17:16.871Z,6.80
2023-05-27T17:19:44.685Z,5.80
2023-05-27T17:22:11.916Z,6.28
2023-05-27T17:24:39.357Z,6.15
2023-05-27T17:27:07.495Z,6.70
2023-05-27T17:29:34.755Z,6.32
2023-05-27T17:32:01.998Z,6.20
2023-05-27T17:34:29.606Z,6.63
2023-05-27T17:36:56.912Z,6.53
2023-05-27T17:39:24.272Z,6.15
2023-05-27T17:41:51.683Z,5.95
2023-05-27T17:44:18.878Z,7.20
2023-05-27T17:46:46.123Z,6.45
2023-05-27T17:49:13.388Z,5.68
2023-05-27T17:51:40.661Z,6.57
2023-05-27T17:54:07.956Z,8.20
2023-05-27T17:56:35.159Z,50.88
2023-05-27T17:59:02.361Z,123.90
2023-05-27T18:01:30.605Z,234.07
2023-05-27T18:03:57.857Z,417.48
2023-05-27T18:06:25.047Z,524.83
2023-05-27T18:08:52.240Z,519.65
2023-05-27T18:11:19.462Z,383.33
2023-05-27T18:13:46.647Z,296.08
2023-05-27T18:16:13.902Z,186.60
2023-05-27T18:18:41.108Z,143.55
2023-05-27T18:21:09.154Z,129.70
2023-05-27T18:23:36.318Z,126.70
2023-05-27T18:26:03.633Z,93.97
2023-05-27T18:28:30.962Z,81.13
2023-05-27T18:30:58.307Z,74.75
2023-05-27T18:33:25.960Z,58.75
2023-05-27T18:35:53.226Z,52.60
2023-05-27T18:38:22.859Z,56.47
2023-05-27T18:40:53.090Z,54.30
2023-05-27T18:43:20.678Z,50.50
2023-05-27T18:45:58.210Z,45.13
2023-05-27T18:48:26.422Z,40.55
2023-05-27T18:50:54.890Z,36.80
2023-05-27T18:53:22.715Z,30.08
2023-05-27T18:55:49.948Z,23.77
2023-05-27T18:58:17.635Z,22.08
2023-05-27T19:00:45.296Z,20.98
2023-05-27T19:03:13.175Z,18.55
2023-05-27T19:05:40.477Z,19.20
2023-05-27T19:08:07.772Z,16.77
2023-05-27T19:10:35.093Z,16.33
2023-05-27T19:13:04.746Z,15.00
2023-05-27T19:15:32.272Z,15.75
2023-05-27T19:17:59.555Z,17.13
2023-05-27T19:20:26.962Z,19.52
2023-05-27T19:22:54.297Z,22.17
2023-05-27T19:25:21.889Z,23.83
2023-05-27T19:27:49.168Z,28.35
2023-05-27T19:30:16.621Z,30.95
2023-05-27T19:32:43.935Z,31.63
2023-05-27T19:35:11.161Z,33.08
2023-05-27T19:37:38.458Z,33.53
2023-05-27T19:40:06.054Z,31.50
2023-05-27T19:42:33.301Z,31.75
2023-05-27T19:45:01.068Z,28.95
2023-05-27T19:47:28.748Z,24.60
2023-05-27T19:49:57.119Z,23.40
2023-05-27T19:52:24.406Z,19.73
2023-05-27T19:54:51.609Z,16.70
2023-05-27T19:57:18.988Z,13.75
2023-05-27T19:59:49.231Z,12.25
2023-05-27T20:02:16.615Z,11.43
2023-05-27T20:04:43.954Z,10.07
2023-05-27T20:07:11.252Z,11.38
2023-05-27T20:09:38.502Z,11.77
2023-05-27T20:12:05.900Z,11.68
2023-05-27T20:14:33.256Z,11.02
2023-05-27T20:17:00.505Z,10.45
2023-05-27T20:19:27.739Z,9.95
2023-05-27T20:21:54.950Z,9.23
2023-05-27T20:24:22.351Z,9.18
2023-05-27T20:26:49.542Z,8.43
2023-05-27T20:29:16.722Z,8.32
2023-05-27T20:31:44.170Z,8.82
2023-05-27T20:34:11.370Z,8.43
2023-05-27T20:36:38.571Z,7.60
2023-05-27T20:39:05.921Z,7.85
2023-05-27T20:41:33.154Z,7.40
2023-05-27T20:44:00.772Z,7.68
2023-05-27T20:46:29.404Z,7.00
2023-05-27T20:48:57.582Z,6.95
2023-05-27T20:51:25.152Z,6.60
2023-05-27T20:53:54.280Z,6.82
2023-05-27T20:56:26.116Z,7.30
2023-05-27T20:58:53.337Z,6.88
2023-05-27T21:01:20.608Z,7.13
2023-05-27T21:03:48.033Z,7.65
2023-05-27T21:06:15.367Z,6.88
2023-05-27T21:08:42.585Z,6.32
2023-05-27T21:11:09.779Z,6.55
2023-05-27T21:13:36.992Z,6.45
2023-05-27T21:16:04.324Z,6.55
2023-05-27T21:18:34.676Z,6.20
2023-05-27T21:21:02.304Z,6.07
2023-05-27T21:23:29.523Z,6.65
2023-05-27T21:25:57.422Z,6.85
2023-05-27T21:28:24.602Z,6.88
2023-05-27T21:30:51.964Z,6.00
2023-05-27T21:33:19.357Z,6.60
2023-05-27T21:35:46.534Z,5.50
2023-05-27T21:38:13.717Z,5.70
2023-05-27T21:40:41.062Z,5.70
2023-05-27T21:43:08.262Z,5.18
2023-05-27T21:45:37.266Z,5.72
2023-05-27T21:48:05.037Z,6.25
2023-05-27T21:50:32.422Z,6.35
2023-05-27T21:52:59.615Z,6.13
2023-05-27T21:55:26.806Z,6.30
2023-05-27T21:57:54.020Z,5.93
2023-05-27T22:00:21.218Z,5.78
2023-05-27T22:02:48.519Z,6.47
2023-05-27T22:05:16.422Z,6.30
2023-05-27T22:07:46.642Z,6.07
2023-05-27T22:10:13.943Z,6.20
2023-05-27T22:12:41.165Z,6.63
2023-05-27T22:15:08.600Z,5.95
2023-05-27T22:17:35.823Z,5.75
2023-05-27T22:20:03.142Z,5.97
2023-05-27T22:22:30.417Z,5.10
2023-05-27T22:24:57.627Z,5.75
2023-05-27T22:27:24.857Z,6.50
2023-05-27T22:29:52.041Z,5.38
2023-05-27T22:32:19.269Z,5.43
2023-05-27T22:34:46.658Z,5.70
2023-05-27T22:37:13.823Z,6.22
2023-05-27T22:39:41.037Z,5.70
2023-05-27T22:42:11.355Z,5.03
2023-05-27T22:44:38.802Z,5.05
2023-05-27T22:47:06.249Z,5.22
2023-05-27T22:49:33.545Z,5.20
2023-05-27T22:52:00.744Z,4.95
2023-05-27T22:54:27.923Z,4.95
2023-05-27T22:56:55.197Z,6.05
2023-05-27T22:59:22.363Z,5.53
2023-05-27T23:01:49.601Z,5.68
2023-05-27T23:04:16.823Z,5.63
2023-05-27T23:06:44.010Z,5.68
2023-05-27T23:09:11.346Z,4.65
2023-05-27T23:11:38.548Z,5.22
2023-05-27T23:14:05.794Z,5.00
2023-05-27T23:16:33.035Z,4.88
2023-05-27T23:19:00.417Z,4.97
2023-05-27T23:21:27.675Z,5.40
2023-05-27T23:23:54.877Z,4.70
2023-05-27T23:26:23.402Z,4.80
2023-05-27T23:28:53.329Z,4.57
2023-05-27T23:31:20.666Z,5.32
2023-05-27T23:33:47.876Z,4.82
2023-05-27T23:36:15.459Z,4.88
2023-05-27T23:38:42.661Z,4.93
2023-05-27T23:41:10.027Z,5.32
2023-05-27T23:43:37.249Z,4.70
2023-05-27T23:46:04.453Z,4.57
2023-05-27T23:48:34.335Z,5.00
2023-05-27T23:51:01.843Z,4.85
2023-05-27T23:53:28.971Z,4.75
2023-05-27T23:55:56.438Z,4.18
2023-05-27T23:58:23.860Z,4.28
